createdAt,value
2016-11-19T00:00:59.628Z,954.16
2016-11-19T00:02:08.323Z,954.16
2016-11-19T00:03:17.010Z,954.18
2016-11-19T00:04:25.711Z,954.21
2016-11-19T00:05:34.400Z,954.17
2016-11-19T00:06:43.091Z,954.23
2016-11-19T00:07:51.782Z,954.18
2016-11-19T00:09:00.468Z,954.19
2016-11-19T00:10:09.159Z,954.21
2016-11-19T00:11:17.847Z,954.23
2016-11-19T00:12:26.536Z,954.26
2016-11-19T00:13:35.226Z,954.25
2016-11-19T00:14:43.915Z,954.29
2016-11-19T00:15:52.607Z,954.27
2016-11-19T00:17:01.293Z,954.31
2016-11-19T00:18:09.984Z,954.28
2016-11-19T00:19:18.680Z,954.35
2016-11-19T00:20:27.371Z,954.39
2016-11-19T00:21:36.107Z,954.38
2016-11-19T00:22:44.797Z,954.43
2016-11-19T00:23:53.482Z,954.44
2016-11-19T00:25:02.169Z,954.48
2016-11-19T00:26:10.870Z,954.48
2016-11-19T00:27:19.563Z,954.49
2016-11-19T00:28:28.253Z,954.49
2016-11-19T00:29:36.943Z,954.48
2016-11-19T00:30:45.626Z,954.53
2016-11-19T00:31:54.315Z,954.53
2016-11-19T00:33:03.009Z,954.51
2016-11-19T00:34:11.699Z,954.58
2016-11-19T00:35:20.388Z,954.57
2016-11-19T00:36:29.073Z,954.54
2016-11-19T00:37:37.762Z,954.54
2016-11-19T00:38:46.456Z,954.54
2016-11-19T00:39:55.150Z,954.57
2016-11-19T00:41:03.835Z,954.58
2016-11-19T00:42:12.525Z,954.54
2016-11-19T00:43:21.254Z,954.56
2016-11-19T00:44:29.946Z,954.59
2016-11-19T00:45:38.642Z,954.58
2016-11-19T00:46:47.333Z,954.58
2016-11-19T00:47:56.021Z,954.59
2016-11-19T00:49:04.706Z,954.64
2016-11-19T00:50:13.706Z,954.61
2016-11-19T00:51:22.401Z,954.62
2016-11-19T00:52:31.135Z,954.62
2016-11-19T00:53:39.824Z,954.63
2016-11-19T00:54:48.515Z,954.67
2016-11-19T00:55:57.203Z,954.66
2016-11-19T00:57:05.891Z,954.67
2016-11-19T00:58:14.902Z,954.68
2016-11-19T00:59:23.593Z,954.66
2016-11-19T01:00:32.283Z,954.67
2016-11-19T01:01:40.970Z,954.65
2016-11-19T01:02:49.666Z,954.7
2016-11-19T01:03:58.669Z,954.72
2016-11-19T01:05:07.356Z,954.7
2016-11-19T01:06:16.367Z,954.71
2016-11-19T01:07:25.053Z,954.71
2016-11-19T01:08:33.743Z,954.76
2016-11-19T01:09:42.433Z,954.74
2016-11-19T01:10:51.123Z,954.79
2016-11-19T01:11:59.810Z,954.79
2016-11-19T01:13:08.501Z,954.79
2016-11-19T01:14:17.197Z,954.79
2016-11-19T01:15:25.884Z,954.77
2016-11-19T01:16:34.570Z,954.84
2016-11-19T01:17:43.256Z,954.87
2016-11-19T01:18:51.943Z,954.82
2016-11-19T01:20:00.628Z,954.85
2016-11-19T01:21:09.321Z,954.84
2016-11-19T01:22:18.033Z,954.87
2016-11-19T01:23:26.718Z,954.91
2016-11-19T01:24:35.407Z,954.9
2016-11-19T01:25:44.102Z,954.88
2016-11-19T01:26:52.791Z,954.92
2016-11-19T01:28:01.485Z,954.93
2016-11-19T01:29:10.171Z,954.93
2016-11-19T01:30:18.859Z,954.91
2016-11-19T01:31:27.578Z,954.93
2016-11-19T01:32:36.591Z,954.91
2016-11-19T01:33:45.279Z,954.93
2016-11-19T01:34:53.963Z,954.93
2016-11-19T01:36:02.651Z,954.92
2016-11-19T01:37:11.337Z,954.88
2016-11-19T01:38:20.025Z,954.91
2016-11-19T01:39:28.713Z,954.94
2016-11-19T01:40:37.404Z,954.94
2016-11-19T01:41:46.128Z,954.9
2016-11-19T01:42:54.819Z,954.9
2016-11-19T01:44:03.506Z,954.93
2016-11-19T01:45:12.190Z,954.93
2016-11-19T01:46:20.877Z,954.95
2016-11-19T01:47:29.562Z,954.95
2016-11-19T01:48:38.396Z,954.99
2016-11-19T01:49:47.107Z,955.02
2016-11-19T01:50:55.791Z,955.04
2016-11-19T01:52:04.493Z,955.02
2016-11-19T01:53:13.184Z,955.06
2016-11-19T01:54:21.873Z,955.07
2016-11-19T01:55:30.560Z,955.09
2016-11-19T01:56:39.254Z,955.08
2016-11-19T01:57:47.949Z,955.11
2016-11-19T01:58:56.637Z,955.17
2016-11-19T02:00:05.383Z,955.26
2016-11-19T02:01:14.077Z,955.23
2016-11-19T02:02:22.765Z,955.21
2016-11-19T02:03:31.452Z,955.27
2016-11-19T02:04:40.456Z,955.31
2016-11-19T02:05:49.141Z,955.31
2016-11-19T02:06:57.829Z,955.31
2016-11-19T02:08:06.515Z,955.35
2016-11-19T02:09:15.236Z,955.31
2016-11-19T02:10:23.920Z,955.39
2016-11-19T02:11:32.606Z,955.43
2016-11-19T02:12:41.303Z,955.49
2016-11-19T02:13:49.993Z,955.49
2016-11-19T02:14:58.713Z,955.5
2016-11-19T02:16:07.408Z,955.52
2016-11-19T02:17:16.098Z,955.48
2016-11-19T02:18:24.785Z,955.53
2016-11-19T02:19:33.475Z,955.46
2016-11-19T02:20:42.169Z,955.54
2016-11-19T02:21:50.861Z,955.49
2016-11-19T02:22:59.850Z,955.53
2016-11-19T02:24:08.546Z,955.5
2016-11-19T02:25:17.238Z,955.56
2016-11-19T02:26:25.925Z,955.55
2016-11-19T02:27:34.614Z,955.65
2016-11-19T02:28:43.305Z,955.67
2016-11-19T02:29:52.308Z,955.65
2016-11-19T02:31:00.996Z,955.67
2016-11-19T02:32:09.689Z,955.68
2016-11-19T02:33:18.375Z,955.69
2016-11-19T02:34:27.064Z,955.63
2016-11-19T02:35:35.751Z,955.65
2016-11-19T02:36:44.441Z,955.71
2016-11-19T02:37:53.136Z,955.66
2016-11-19T02:39:01.826Z,955.72
2016-11-19T02:40:10.515Z,955.73
2016-11-19T02:41:19.204Z,955.72
2016-11-19T02:42:27.889Z,955.71
2016-11-19T02:43:36.582Z,955.73
2016-11-19T02:44:45.267Z,955.78
2016-11-19T02:45:53.969Z,955.78
2016-11-19T02:47:02.669Z,955.77
2016-11-19T02:48:11.365Z,955.77
2016-11-19T02:49:20.059Z,955.8
2016-11-19T02:50:28.742Z,955.81
2016-11-19T02:51:37.436Z,955.83
2016-11-19T02:52:46.125Z,955.82
2016-11-19T02:53:54.814Z,955.83
2016-11-19T02:55:03.525Z,955.87
2016-11-19T02:56:12.218Z,955.91
2016-11-19T02:57:20.908Z,955.93
2016-11-19T02:58:29.602Z,955.93
2016-11-19T02:59:38.316Z,955.9
2016-11-19T03:00:47.007Z,955.92
2016-11-19T03:01:55.698Z,955.89
2016-11-19T03:03:04.415Z,955.87
2016-11-19T03:04:13.148Z,955.9
2016-11-19T03:05:21.834Z,955.88
2016-11-19T03:06:30.522Z,955.92
2016-11-19T03:07:39.241Z,955.91
2016-11-19T03:08:47.934Z,955.88
2016-11-19T03:09:56.653Z,955.88
2016-11-19T03:11:05.348Z,955.91
2016-11-19T03:12:14.035Z,955.92
2016-11-19T03:13:22.726Z,955.89
2016-11-19T03:14:31.413Z,955.91
2016-11-19T03:15:40.095Z,955.9
2016-11-19T03:16:48.780Z,955.92
2016-11-19T03:17:57.473Z,955.92
2016-11-19T03:19:06.161Z,955.98
2016-11-19T03:20:14.848Z,955.96
2016-11-19T03:21:23.538Z,956.01
2016-11-19T03:22:32.225Z,956.03
2016-11-19T03:23:40.908Z,955.99
2016-11-19T03:24:49.594Z,956
2016-11-19T03:25:58.281Z,956.05
2016-11-19T03:27:06.971Z,956.06
2016-11-19T03:28:15.665Z,955.99
2016-11-19T03:29:24.351Z,956.05
2016-11-19T03:30:33.040Z,956.1
2016-11-19T03:31:41.730Z,956.05
2016-11-19T03:32:50.422Z,956.07
2016-11-19T03:33:59.113Z,956.06
2016-11-19T03:35:07.803Z,956.09
2016-11-19T03:36:16.497Z,956.14
2016-11-19T03:37:25.184Z,956.15
2016-11-19T03:38:34.186Z,956.19
2016-11-19T03:39:42.870Z,956.2
2016-11-19T03:40:51.561Z,956.21
2016-11-19T03:42:00.561Z,956.28
2016-11-19T03:43:09.247Z,956.29
2016-11-19T03:44:17.985Z,956.26
2016-11-19T03:45:26.673Z,956.3
2016-11-19T03:46:35.366Z,956.33
2016-11-19T03:47:44.058Z,956.31
2016-11-19T03:48:52.741Z,956.32
2016-11-19T03:50:01.464Z,956.31
2016-11-19T03:51:10.152Z,956.39
2016-11-19T03:52:18.841Z,956.36
2016-11-19T03:53:27.526Z,956.36
2016-11-19T03:54:36.218Z,956.41
2016-11-19T03:55:44.920Z,956.42
2016-11-19T03:56:53.925Z,956.44
2016-11-19T03:58:02.614Z,956.47
2016-11-19T03:59:11.298Z,956.45
2016-11-19T04:00:19.986Z,956.54
2016-11-19T04:01:28.673Z,956.52
2016-11-19T04:02:37.360Z,956.52
2016-11-19T04:03:46.045Z,956.57
2016-11-19T04:04:54.786Z,956.56
2016-11-19T04:06:03.481Z,956.6
2016-11-19T04:07:12.170Z,956.61
2016-11-19T04:08:20.859Z,956.65
2016-11-19T04:09:29.546Z,956.61
2016-11-19T04:10:38.235Z,956.65
2016-11-19T04:11:46.923Z,956.7
2016-11-19T04:12:55.619Z,956.72
2016-11-19T04:14:04.312Z,956.76
2016-11-19T04:15:12.999Z,956.67
2016-11-19T04:16:21.687Z,956.78
2016-11-19T04:17:30.393Z,956.75
2016-11-19T04:18:39.096Z,956.79
2016-11-19T04:19:47.781Z,956.85
2016-11-19T04:20:56.470Z,956.83
2016-11-19T04:22:05.163Z,956.88
2016-11-19T04:23:13.873Z,956.89
2016-11-19T04:24:22.565Z,956.81
2016-11-19T04:25:31.255Z,956.83
2016-11-19T04:26:39.951Z,956.82
2016-11-19T04:27:48.639Z,956.77
2016-11-19T04:28:57.321Z,956.8
2016-11-19T04:30:06.014Z,956.76
2016-11-19T04:31:14.704Z,956.77
2016-11-19T04:32:23.393Z,956.78
2016-11-19T04:33:32.086Z,956.77
2016-11-19T04:34:40.772Z,956.82
2016-11-19T04:35:49.461Z,956.82
2016-11-19T04:36:58.150Z,956.8
2016-11-19T04:38:06.839Z,956.85
2016-11-19T04:39:15.527Z,956.91
2016-11-19T04:40:24.215Z,956.9
2016-11-19T04:41:32.903Z,956.93
2016-11-19T04:42:41.590Z,956.95
2016-11-19T04:43:50.280Z,956.98
2016-11-19T04:44:58.975Z,957
2016-11-19T04:46:07.664Z,957.01
2016-11-19T04:47:16.351Z,957.02
2016-11-19T04:48:25.074Z,957.04
2016-11-19T04:49:33.761Z,957.13
2016-11-19T04:50:42.448Z,957.11
2016-11-19T04:51:51.142Z,957.15
2016-11-19T04:52:59.828Z,957.1
2016-11-19T04:54:08.515Z,957.14
2016-11-19T04:55:17.200Z,957.17
2016-11-19T04:56:25.890Z,957.2
2016-11-19T04:57:34.597Z,957.2
2016-11-19T04:58:43.297Z,957.21
2016-11-19T04:59:51.981Z,957.2
2016-11-19T05:01:00.672Z,957.24
2016-11-19T05:02:09.364Z,957.24
2016-11-19T05:03:18.053Z,957.27
2016-11-19T05:04:26.742Z,957.3
2016-11-19T05:05:35.429Z,957.29
2016-11-19T05:06:44.112Z,957.28
2016-11-19T05:07:52.799Z,957.35
2016-11-19T05:09:01.494Z,957.37
2016-11-19T05:10:10.185Z,957.4
2016-11-19T05:11:18.872Z,957.37
2016-11-19T05:12:27.586Z,957.45
2016-11-19T05:13:36.310Z,957.43
2016-11-19T05:14:45.005Z,957.42
2016-11-19T05:15:53.694Z,957.4
2016-11-19T05:17:02.387Z,957.45
2016-11-19T05:18:11.076Z,957.44
2016-11-19T05:19:19.768Z,957.42
2016-11-19T05:20:28.457Z,957.46
2016-11-19T05:21:37.148Z,957.42
2016-11-19T05:22:45.837Z,957.56
2016-11-19T05:23:54.565Z,957.5
2016-11-19T05:25:03.258Z,957.56
2016-11-19T05:26:11.972Z,957.59
2016-11-19T05:27:20.671Z,957.54
2016-11-19T05:28:29.361Z,957.57
2016-11-19T05:29:38.057Z,957.63
2016-11-19T05:30:46.741Z,957.61
2016-11-19T05:31:55.437Z,957.6
2016-11-19T05:33:04.127Z,957.66
2016-11-19T05:34:12.825Z,957.67
2016-11-19T05:35:21.513Z,957.65
2016-11-19T05:36:30.227Z,957.65
2016-11-19T05:37:38.965Z,957.62
2016-11-19T05:38:47.653Z,957.65
2016-11-19T05:39:56.341Z,957.69
2016-11-19T05:41:05.032Z,957.67
2016-11-19T05:42:13.719Z,957.7
2016-11-19T05:43:22.412Z,957.77
2016-11-19T05:44:31.094Z,957.71
2016-11-19T05:45:39.779Z,957.73
2016-11-19T05:46:48.468Z,957.75
2016-11-19T05:47:57.158Z,957.75
2016-11-19T05:49:05.846Z,957.78
2016-11-19T05:50:14.534Z,957.81
2016-11-19T05:51:23.223Z,957.84
2016-11-19T05:52:31.914Z,957.8
2016-11-19T05:53:40.600Z,957.84
2016-11-19T05:54:49.287Z,957.85
2016-11-19T05:55:57.971Z,957.82
2016-11-19T05:57:06.663Z,957.86
2016-11-19T05:58:15.353Z,957.85
2016-11-19T05:59:24.048Z,957.88
2016-11-19T06:00:32.732Z,957.84
2016-11-19T06:01:41.418Z,957.87
2016-11-19T06:02:50.113Z,957.95
2016-11-19T06:03:59.122Z,957.93
2016-11-19T06:05:07.810Z,957.89
2016-11-19T06:06:16.496Z,957.94
2016-11-19T06:07:25.190Z,957.93
2016-11-19T06:08:33.916Z,957.98
2016-11-19T06:09:42.604Z,958.01
2016-11-19T06:10:51.287Z,958.07
2016-11-19T06:11:59.974Z,958.08
2016-11-19T06:13:08.694Z,958.09
2016-11-19T06:14:17.380Z,958.08
2016-11-19T06:15:26.073Z,958.16
2016-11-19T06:16:34.758Z,958.08
2016-11-19T06:17:43.449Z,958.15
2016-11-19T06:18:52.135Z,958.11
2016-11-19T06:20:00.828Z,958.2
2016-11-19T06:21:09.833Z,958.22
2016-11-19T06:22:18.526Z,958.24
2016-11-19T06:23:27.221Z,958.3
2016-11-19T06:24:36.250Z,958.33
2016-11-19T06:25:44.942Z,958.36
2016-11-19T06:26:53.628Z,958.4
2016-11-19T06:28:02.313Z,958.43
2016-11-19T06:29:10.998Z,958.45
2016-11-19T06:30:19.687Z,958.43
2016-11-19T06:31:28.412Z,958.46
2016-11-19T06:32:37.106Z,958.49
2016-11-19T06:33:45.798Z,958.55
2016-11-19T06:34:54.486Z,958.5
2016-11-19T06:36:03.197Z,958.48
2016-11-19T06:37:11.911Z,958.55
2016-11-19T06:38:20.612Z,958.51
2016-11-19T06:39:29.333Z,958.57
2016-11-19T06:40:38.020Z,958.58
2016-11-19T06:41:46.708Z,958.64
2016-11-19T06:42:55.399Z,958.61
2016-11-19T06:44:04.091Z,958.64
2016-11-19T06:45:12.778Z,958.69
2016-11-19T06:46:21.471Z,958.71
2016-11-19T06:47:30.155Z,958.71
2016-11-19T06:48:38.854Z,958.69
2016-11-19T06:49:47.543Z,958.76
2016-11-19T06:50:56.264Z,958.78
2016-11-19T06:52:05.274Z,958.85
2016-11-19T06:53:13.966Z,958.81
2016-11-19T06:54:22.656Z,958.85
2016-11-19T06:55:31.347Z,958.89
2016-11-19T06:56:40.032Z,958.9
2016-11-19T06:57:48.723Z,958.92
2016-11-19T06:58:57.407Z,958.97
2016-11-19T07:00:06.100Z,958.97
2016-11-19T07:01:14.789Z,958.94
2016-11-19T07:02:23.475Z,959.01
2016-11-19T07:03:32.162Z,959.02
2016-11-19T07:04:40.890Z,959.07
2016-11-19T07:05:49.583Z,959.07
2016-11-19T07:06:58.275Z,959.06
2016-11-19T07:08:06.959Z,959.09
2016-11-19T07:09:15.650Z,959.11
2016-11-19T07:10:24.339Z,959.15
2016-11-19T07:11:33.350Z,959.16
2016-11-19T07:12:42.034Z,959.22
2016-11-19T07:13:50.722Z,959.19
2016-11-19T07:14:59.413Z,959.22
2016-11-19T07:16:08.101Z,959.23
2016-11-19T07:17:16.788Z,959.22
2016-11-19T07:18:25.472Z,959.31
2016-11-19T07:19:34.159Z,959.28
2016-11-19T07:20:42.855Z,959.33
2016-11-19T07:21:51.541Z,959.37
2016-11-19T07:23:00.231Z,959.38
2016-11-19T07:24:09.251Z,959.44
2016-11-19T07:25:17.939Z,959.48
2016-11-19T07:26:26.629Z,959.47
2016-11-19T07:27:35.361Z,959.46
2016-11-19T07:28:44.053Z,959.49
2016-11-19T07:29:52.746Z,959.49
2016-11-19T07:31:01.752Z,959.52
2016-11-19T07:32:10.439Z,959.56
2016-11-19T07:33:19.124Z,959.64
2016-11-19T07:34:27.814Z,959.64
2016-11-19T07:35:36.530Z,959.66
2016-11-19T07:36:45.220Z,959.67
2016-11-19T07:37:53.906Z,959.73
2016-11-19T07:39:02.594Z,959.72
2016-11-19T07:40:11.284Z,959.75
2016-11-19T07:41:19.971Z,959.79
2016-11-19T07:42:28.659Z,959.79
2016-11-19T07:43:37.351Z,959.79
2016-11-19T07:44:46.043Z,959.83
2016-11-19T07:45:54.729Z,959.93
2016-11-19T07:47:03.427Z,959.9
2016-11-19T07:48:12.149Z,959.99
2016-11-19T07:49:20.842Z,959.96
2016-11-19T07:50:29.530Z,960.04
2016-11-19T07:51:38.234Z,960.09
2016-11-19T07:52:46.917Z,960.1
2016-11-19T07:53:55.606Z,960.17
2016-11-19T07:55:04.295Z,960.12
2016-11-19T07:56:12.992Z,960.18
2016-11-19T07:57:21.679Z,960.16
2016-11-19T07:58:30.369Z,960.2
2016-11-19T07:59:39.056Z,960.22
2016-11-19T08:00:47.745Z,960.22
2016-11-19T08:01:56.431Z,960.19
2016-11-19T08:03:05.123Z,960.22
2016-11-19T08:04:13.813Z,960.19
2016-11-19T08:05:22.501Z,960.24
2016-11-19T08:06:31.195Z,960.21
2016-11-19T08:07:39.882Z,960.25
2016-11-19T08:08:48.884Z,960.21
2016-11-19T08:09:57.578Z,960.27
2016-11-19T08:11:06.261Z,960.32
2016-11-19T08:12:14.954Z,960.31
2016-11-19T08:13:23.642Z,960.34
2016-11-19T08:14:32.333Z,960.37
2016-11-19T08:15:41.027Z,960.38
2016-11-19T08:16:49.715Z,960.38
2016-11-19T08:17:58.432Z,960.43
2016-11-19T08:19:07.118Z,960.46
2016-11-19T08:20:15.807Z,960.5
2016-11-19T08:21:24.494Z,960.5
2016-11-19T08:22:33.180Z,960.6
2016-11-19T08:23:41.867Z,960.53
2016-11-19T08:24:50.585Z,960.5
2016-11-19T08:25:59.274Z,960.6
2016-11-19T08:27:07.962Z,960.58
2016-11-19T08:28:16.652Z,960.62
2016-11-19T08:29:25.356Z,960.61
2016-11-19T08:30:34.047Z,960.66
2016-11-19T08:31:42.742Z,960.71
2016-11-19T08:32:51.432Z,960.64
2016-11-19T08:34:00.122Z,960.73
2016-11-19T08:35:08.814Z,960.73
2016-11-19T08:36:17.507Z,960.75
2016-11-19T08:37:26.199Z,960.78
2016-11-19T08:38:34.888Z,960.82
2016-11-19T08:39:43.577Z,960.82
2016-11-19T08:40:52.271Z,960.88
2016-11-19T08:42:00.960Z,960.88
2016-11-19T08:43:09.653Z,960.89
2016-11-19T08:44:18.341Z,960.95
2016-11-19T08:45:27.031Z,960.87
2016-11-19T08:46:35.743Z,960.98
2016-11-19T08:47:44.748Z,960.93
2016-11-19T08:48:53.435Z,960.96
2016-11-19T08:50:02.438Z,961.01
2016-11-19T08:51:11.127Z,961.01
2016-11-19T08:52:19.817Z,961.03
2016-11-19T08:53:28.509Z,961.05
2016-11-19T08:54:37.509Z,961.03
2016-11-19T08:55:46.198Z,961.03
2016-11-19T08:56:54.884Z,961.04
2016-11-19T08:58:03.604Z,961.07
2016-11-19T08:59:12.328Z,961.07
2016-11-19T09:00:21.024Z,961.1
2016-11-19T09:01:29.716Z,961.13
2016-11-19T09:02:38.405Z,961.12
2016-11-19T09:03:47.096Z,961.12
2016-11-19T09:04:55.783Z,961.11
2016-11-19T09:06:04.474Z,961.2
2016-11-19T09:07:13.187Z,961.19
2016-11-19T09:08:21.876Z,961.27
2016-11-19T09:09:30.565Z,961.28
2016-11-19T09:10:39.259Z,961.32
2016-11-19T09:11:47.949Z,961.38
2016-11-19T09:12:56.638Z,961.38
2016-11-19T09:14:05.326Z,961.43
2016-11-19T09:15:14.015Z,961.5
2016-11-19T09:16:22.705Z,961.53
2016-11-19T09:17:31.426Z,961.5
2016-11-19T09:18:40.121Z,961.52
2016-11-19T09:19:48.838Z,961.59
2016-11-19T09:20:57.844Z,961.66
2016-11-19T09:22:06.538Z,961.66
2016-11-19T09:23:15.225Z,961.63
2016-11-19T09:24:24.256Z,961.73
2016-11-19T09:25:32.945Z,961.74
2016-11-19T09:26:41.632Z,961.81
2016-11-19T09:27:50.344Z,961.83
2016-11-19T09:28:59.036Z,961.8
2016-11-19T09:30:07.733Z,961.92
2016-11-19T09:31:16.425Z,961.97
2016-11-19T09:32:25.111Z,961.9
2016-11-19T09:33:33.807Z,962.02
2016-11-19T09:34:42.493Z,962.02
2016-11-19T09:35:51.175Z,962.05
2016-11-19T09:37:00.198Z,962.06
2016-11-19T09:38:08.885Z,962.04
2016-11-19T09:39:17.572Z,962.07
2016-11-19T09:40:26.262Z,962.18
2016-11-19T09:41:34.955Z,962.15
2016-11-19T09:42:43.645Z,962.16
2016-11-19T09:43:52.335Z,962.17
2016-11-19T09:45:01.025Z,962.23
2016-11-19T09:46:09.718Z,962.27
2016-11-19T09:47:18.410Z,962.31
2016-11-19T09:48:27.099Z,962.27
2016-11-19T09:49:35.786Z,962.23
2016-11-19T09:50:44.479Z,962.25
2016-11-19T09:51:53.166Z,962.24
2016-11-19T09:53:01.853Z,962.29
2016-11-19T09:54:10.543Z,962.31
2016-11-19T09:55:19.230Z,962.3
2016-11-19T09:56:27.923Z,962.31
2016-11-19T09:57:36.618Z,962.37
2016-11-19T09:58:45.310Z,962.29
2016-11-19T09:59:54.004Z,962.36
2016-11-19T10:01:04.800Z,962.3
2016-11-19T10:02:13.518Z,962.32
2016-11-19T10:03:22.208Z,962.35
2016-11-19T10:04:30.899Z,962.34
2016-11-19T10:05:39.590Z,962.45
2016-11-19T10:06:48.377Z,962.38
2016-11-19T10:07:57.061Z,962.52
2016-11-19T10:09:05.752Z,962.49
2016-11-19T10:10:14.439Z,962.53
2016-11-19T10:11:23.127Z,962.52
2016-11-19T10:12:31.872Z,962.54
2016-11-19T10:13:40.560Z,962.47
2016-11-19T10:14:49.251Z,962.55
2016-11-19T10:15:57.969Z,962.63
2016-11-19T10:17:06.663Z,962.63
2016-11-19T10:18:15.653Z,962.65
2016-11-19T10:19:24.341Z,962.69
2016-11-19T10:20:33.034Z,962.79
2016-11-19T10:21:41.731Z,962.77
2016-11-19T10:22:50.422Z,962.8
2016-11-19T10:23:59.159Z,962.77
2016-11-19T10:25:08.174Z,962.8
2016-11-19T10:26:16.866Z,962.85
2016-11-19T10:27:25.556Z,962.8
2016-11-19T10:28:34.245Z,962.9
2016-11-19T10:29:42.991Z,962.9
2016-11-19T10:30:51.996Z,962.91
2016-11-19T10:32:00.683Z,962.96
2016-11-19T10:33:09.371Z,962.96
2016-11-19T10:34:18.066Z,962.94
2016-11-19T10:35:26.803Z,962.94
2016-11-19T10:36:35.495Z,962.96
2016-11-19T10:37:44.185Z,962.95
2016-11-19T10:38:52.877Z,962.93
2016-11-19T10:40:01.581Z,962.94
2016-11-19T10:41:10.371Z,962.98
2016-11-19T10:42:19.062Z,963
2016-11-19T10:43:27.748Z,963.01
2016-11-19T10:44:36.435Z,963.03
2016-11-19T10:45:45.125Z,963.05
2016-11-19T10:46:53.866Z,963.06
2016-11-19T10:48:02.552Z,963.11
2016-11-19T10:49:11.248Z,963.11
2016-11-19T10:50:19.941Z,963.15
2016-11-19T10:51:28.633Z,963.19
2016-11-19T10:52:37.396Z,963.19
2016-11-19T10:53:46.083Z,963.23
2016-11-19T10:54:54.769Z,963.26
2016-11-19T10:56:03.457Z,963.29
2016-11-19T10:57:12.147Z,963.34
2016-11-19T10:58:20.884Z,963.32
2016-11-19T10:59:29.571Z,963.35
2016-11-19T11:00:38.260Z,963.36
2016-11-19T11:01:46.947Z,963.36
2016-11-19T11:02:55.640Z,963.42
2016-11-19T11:04:04.380Z,963.41
2016-11-19T11:05:13.063Z,963.47
2016-11-19T11:06:21.782Z,963.48
2016-11-19T11:07:30.474Z,963.53
2016-11-19T11:08:39.162Z,963.48
2016-11-19T11:09:47.902Z,963.56
2016-11-19T11:10:56.591Z,963.59
2016-11-19T11:12:05.282Z,963.57
2016-11-19T11:13:13.976Z,963.58
2016-11-19T11:14:22.665Z,963.61
2016-11-19T11:15:31.407Z,963.66
2016-11-19T11:16:40.095Z,963.66
2016-11-19T11:17:48.785Z,963.66
2016-11-19T11:18:57.478Z,963.71
2016-11-19T11:20:06.191Z,963.72
2016-11-19T11:21:14.937Z,963.68
2016-11-19T11:22:23.624Z,963.69
2016-11-19T11:23:32.316Z,963.67
2016-11-19T11:24:41.008Z,963.69
2016-11-19T11:25:49.697Z,963.72
2016-11-19T11:26:58.489Z,963.72
2016-11-19T11:28:07.178Z,963.75
2016-11-19T11:29:15.870Z,963.76
2016-11-19T11:30:24.561Z,963.79
2016-11-19T11:31:33.253Z,963.8
2016-11-19T11:32:41.994Z,963.86
2016-11-19T11:33:50.681Z,963.85
2016-11-19T11:34:59.371Z,963.93
2016-11-19T11:36:08.062Z,964
2016-11-19T11:37:16.758Z,964.04
2016-11-19T11:38:25.505Z,964.01
2016-11-19T11:39:34.198Z,964.11
2016-11-19T11:40:42.896Z,964.12
2016-11-19T11:41:51.584Z,964.17
2016-11-19T11:43:00.275Z,964.19
2016-11-19T11:44:09.019Z,964.2
2016-11-19T11:45:17.713Z,964.23
2016-11-19T11:46:26.407Z,964.29
2016-11-19T11:47:35.103Z,964.27
2016-11-19T11:48:43.799Z,964.27
2016-11-19T11:49:52.543Z,964.22
2016-11-19T11:51:01.236Z,964.3
2016-11-19T11:52:09.933Z,964.33
2016-11-19T11:53:18.647Z,964.34
2016-11-19T11:54:27.364Z,964.4
2016-11-19T11:55:36.107Z,964.35
2016-11-19T11:56:44.799Z,964.35
2016-11-19T11:57:53.497Z,964.36
2016-11-19T11:59:02.190Z,964.34
2016-11-19T12:00:10.882Z,964.39
2016-11-19T12:01:19.625Z,964.34
2016-11-19T12:02:28.326Z,964.38
2016-11-19T12:03:37.019Z,964.42
2016-11-19T12:04:46.038Z,964.44
2016-11-19T12:05:54.762Z,964.41
2016-11-19T12:07:03.508Z,964.49
2016-11-19T12:08:12.204Z,964.47
2016-11-19T12:09:20.907Z,964.51
2016-11-19T12:10:29.603Z,964.54
2016-11-19T12:11:38.299Z,964.55
2016-11-19T12:12:47.045Z,964.54
2016-11-19T12:13:55.780Z,964.59
2016-11-19T12:15:04.472Z,964.55
2016-11-19T12:16:13.173Z,964.55
2016-11-19T12:17:21.872Z,964.5
2016-11-19T12:18:30.621Z,964.56
2016-11-19T12:19:39.315Z,964.56
2016-11-19T12:20:48.016Z,964.6
2016-11-19T12:21:56.708Z,964.6
2016-11-19T12:23:05.404Z,964.58
2016-11-19T12:24:14.150Z,964.57
2016-11-19T12:25:22.849Z,964.62
2016-11-19T12:26:31.549Z,964.6
2016-11-19T12:27:40.244Z,964.65
2016-11-19T12:28:49.252Z,964.6
2016-11-19T12:29:58.003Z,964.58
2016-11-19T12:31:06.701Z,964.53
2016-11-19T12:32:15.397Z,964.55
2016-11-19T12:33:24.100Z,964.55
2016-11-19T12:34:32.805Z,964.54
2016-11-19T12:35:41.871Z,964.51
2016-11-19T12:36:50.572Z,964.56
2016-11-19T12:37:59.274Z,964.48
2016-11-19T12:39:07.971Z,964.55
2016-11-19T12:40:16.672Z,964.61
2016-11-19T12:41:25.423Z,964.56
2016-11-19T12:42:34.120Z,964.55
2016-11-19T12:43:42.815Z,964.57
2016-11-19T12:44:51.829Z,964.57
2016-11-19T12:46:00.527Z,964.59
2016-11-19T12:47:09.278Z,964.6
2016-11-19T12:48:17.974Z,964.54
2016-11-19T12:49:26.671Z,964.64
2016-11-19T12:50:35.371Z,964.67
2016-11-19T12:51:44.093Z,964.7
2016-11-19T12:52:52.836Z,964.74
2016-11-19T12:54:01.537Z,964.82
2016-11-19T12:55:10.232Z,964.9
2016-11-19T12:56:18.927Z,964.88
2016-11-19T12:57:27.621Z,964.95
2016-11-19T12:58:36.364Z,964.98
2016-11-19T12:59:45.054Z,964.99
2016-11-19T13:00:53.758Z,965.04
2016-11-19T13:02:02.486Z,965.03
2016-11-19T13:03:11.500Z,965.07
2016-11-19T13:04:20.252Z,965.13
2016-11-19T13:05:28.953Z,965.12
2016-11-19T13:06:37.644Z,965.15
2016-11-19T13:07:46.365Z,965.17
2016-11-19T13:08:55.062Z,965.16
2016-11-19T13:10:03.841Z,965.14
2016-11-19T13:11:12.542Z,965.18
2016-11-19T13:12:21.260Z,965.21
2016-11-19T13:13:30.033Z,965.23
2016-11-19T13:14:38.725Z,965.27
2016-11-19T13:15:47.474Z,965.31
2016-11-19T13:16:56.166Z,965.27
2016-11-19T13:18:04.861Z,965.28
2016-11-19T13:19:13.551Z,965.3
2016-11-19T13:20:22.247Z,965.29
2016-11-19T13:21:30.993Z,965.31
2016-11-19T13:22:39.698Z,965.35
2016-11-19T13:23:48.426Z,965.31
2016-11-19T13:24:57.128Z,965.33
2016-11-19T13:26:05.822Z,965.28
2016-11-19T13:27:14.927Z,965.29
2016-11-19T13:28:23.618Z,965.26
2016-11-19T13:29:32.377Z,965.29
2016-11-19T13:30:41.091Z,965.32
2016-11-19T13:31:49.796Z,965.32
2016-11-19T13:32:58.540Z,965.34
2016-11-19T13:34:07.231Z,965.34
2016-11-19T13:35:15.924Z,965.35
2016-11-19T13:36:24.614Z,965.41
2016-11-19T13:37:33.307Z,965.43
2016-11-19T13:38:42.046Z,965.49
2016-11-19T13:39:50.739Z,965.52
2016-11-19T13:40:59.436Z,965.5
2016-11-19T13:42:08.131Z,965.46
2016-11-19T13:43:16.817Z,965.51
2016-11-19T13:44:25.881Z,965.54
2016-11-19T13:45:34.584Z,965.56
2016-11-19T13:46:43.590Z,965.55
2016-11-19T13:47:52.597Z,965.6
2016-11-19T13:49:01.304Z,965.61
2016-11-19T13:50:10.055Z,965.64
2016-11-19T13:51:18.750Z,965.64
2016-11-19T13:52:27.442Z,965.65
2016-11-19T13:53:36.133Z,965.68
2016-11-19T13:54:44.833Z,965.73
2016-11-19T13:55:54.206Z,965.71
2016-11-19T13:57:02.895Z,965.73
2016-11-19T13:58:11.585Z,965.81
2016-11-19T13:59:20.275Z,965.81
2016-11-19T14:00:28.968Z,965.86
2016-11-19T14:01:37.710Z,965.86
2016-11-19T14:02:46.400Z,965.92
2016-11-19T14:03:55.091Z,965.93
2016-11-19T14:05:03.820Z,965.95
2016-11-19T14:06:12.518Z,965.97
2016-11-19T14:07:21.583Z,966.01
2016-11-19T14:08:30.271Z,966
2016-11-19T14:09:38.958Z,966
2016-11-19T14:10:47.647Z,965.97
2016-11-19T14:11:56.335Z,966.01
2016-11-19T14:13:05.075Z,966.03
2016-11-19T14:14:13.769Z,965.94
2016-11-19T14:15:22.456Z,965.99
2016-11-19T14:16:31.144Z,966.02
2016-11-19T14:17:39.834Z,965.97
2016-11-19T14:18:48.575Z,965.97
2016-11-19T14:19:57.266Z,965.95
2016-11-19T14:21:05.962Z,965.98